sensor_id;sensor_type;location;lat;lon;timestamp;P1;durP1;ratioP1;P2;durP2;ratioP2
34144;SDS011;69555;53.014;8.886;2023-06-14T00:01:11;6.57;;;2.58;;
34144;SDS011;69555;53.014;8.886;2023-06-14T00:03:39;17.30;;;3.45;;
34144;SDS011;69555;53.014;8.886;2023-06-14T00:06:05;5.95;;;2.20;;
34144;SDS011;69555;53.014;8.886;2023-06-14T00:08:32;6.35;;;2.20;;
34144;SDS011;69555;53.014;8.886;2023-06-14T00:10:59;6.30;;;2.58;;
34144;SDS011;69555;53.014;8.886;2023-06-14T00:13:26;6.35;;;2.50;;
34144;SDS011;69555;53.014;8.886;2023-06-14T00:15:53;8.55;;;2.92;;
34144;SDS011;69555;53.014;8.886;2023-06-14T00:18:21;4.07;;;2.40;;
34144;SDS011;69555;53.014;8.886;2023-06-14T00:20:50;2.92;;;2.20;;
34144;SDS011;69555;53.014;8.886;2023-06-14T00:25:46;7.78;;;2.15;;
34144;SDS011;69555;53.014;8.886;2023-06-14T00:28:13;13.07;;;4.00;;
34144;SDS011;69555;53.014;8.886;2023-06-14T00:30:40;5.90;;;2.28;;
34144;SDS011;69555;53.014;8.886;2023-06-14T00:33:06;4.00;;;2.58;;
34144;SDS011;69555;53.014;8.886;2023-06-14T00:35:33;11.00;;;2.95;;
34144;SDS011;69555;53.014;8.886;2023-06-14T00:38:01;5.45;;;2.70;;
34144;SDS011;69555;53.014;8.886;2023-06-14T00:40:28;9.75;;;2.53;;
34144;SDS011;69555;53.014;8.886;2023-06-14T00:42:55;4.43;;;2.78;;
34144;SDS011;69555;53.014;8.886;2023-06-14T00:45:22;6.63;;;2.63;;
34144;SDS011;69555;53.014;8.886;2023-06-14T00:47:48;3.00;;;2.40;;
34144;SDS011;69555;53.014;8.886;2023-06-14T00:50:17;4.05;;;2.63;;
34144;SDS011;69555;53.014;8.886;2023-06-14T00:52:46;6.75;;;3.63;;
34144;SDS011;69555;53.014;8.886;2023-06-14T00:55:12;8.15;;;3.53;;
34144;SDS011;69555;53.014;8.886;2023-06-14T00:57:39;5.97;;;3.38;;
34144;SDS011;69555;53.014;8.886;2023-06-14T01:00:06;10.93;;;2.70;;
34144;SDS011;69555;53.014;8.886;2023-06-14T01:02:36;13.00;;;3.53;;
34144;SDS011;69555;53.014;8.886;2023-06-14T01:10:40;5.68;;;2.63;;
34144;SDS011;69555;53.014;8.886;2023-06-14T01:13:34;8.98;;;3.08;;
34144;SDS011;69555;53.014;8.886;2023-06-14T01:16:04;9.07;;;2.85;;
34144;SDS011;69555;53.014;8.886;2023-06-14T01:18:33;5.07;;;2.83;;
34144;SDS011;69555;53.014;8.886;2023-06-14T01:21:00;12.70;;;3.42;;
34144;SDS011;69555;53.014;8.886;2023-06-14T01:23:32;4.82;;;2.95;;
34144;SDS011;69555;53.014;8.886;2023-06-14T01:25:59;6.05;;;2.90;;
34144;SDS011;69555;53.014;8.886;2023-06-14T01:28:29;6.18;;;4.07;;
34144;SDS011;69555;53.014;8.886;2023-06-14T01:30:59;12.10;;;3.03;;
34144;SDS011;69555;53.014;8.886;2023-06-14T01:33:30;6.70;;;3.30;;
34144;SDS011;69555;53.014;8.886;2023-06-14T01:35:59;7.65;;;3.25;;
34144;SDS011;69555;53.014;8.886;2023-06-14T01:38:26;5.03;;;3.00;;
34144;SDS011;69555;53.014;8.886;2023-06-14T01:40:54;8.88;;;3.10;;
34144;SDS011;69555;53.014;8.886;2023-06-14T01:43:23;7.35;;;2.65;;
34144;SDS011;69555;53.014;8.886;2023-06-14T01:45:50;4.63;;;3.20;;
34144;SDS011;69555;53.014;8.886;2023-06-14T01:48:19;7.90;;;3.25;;
34144;SDS011;69555;53.014;8.886;2023-06-14T01:50:47;5.63;;;3.00;;
34144;SDS011;69555;53.014;8.886;2023-06-14T01:53:15;11.05;;;3.97;;
34144;SDS011;69555;53.014;8.886;2023-06-14T01:55:42;7.40;;;3.28;;
34144;SDS011;69555;53.014;8.886;2023-06-14T01:58:10;6.32;;;3.08;;
34144;SDS011;69555;53.014;8.886;2023-06-14T02:00:37;7.72;;;3.30;;
34144;SDS011;69555;53.014;8.886;2023-06-14T02:03:04;6.65;;;3.78;;
34144;SDS011;69555;53.014;8.886;2023-06-14T02:05:30;10.25;;;3.33;;
34144;SDS011;69555;53.014;8.886;2023-06-14T02:07:57;5.18;;;3.08;;
34144;SDS011;69555;53.014;8.886;2023-06-14T02:10:23;8.15;;;3.25;;
34144;SDS011;69555;53.014;8.886;2023-06-14T02:12:50;9.85;;;2.92;;
34144;SDS011;69555;53.014;8.886;2023-06-14T02:15:17;6.07;;;3.15;;
34144;SDS011;69555;53.014;8.886;2023-06-14T02:17:49;5.10;;;3.08;;
34144;SDS011;69555;53.014;8.886;2023-06-14T02:20:16;6.90;;;2.85;;
34144;SDS011;69555;53.014;8.886;2023-06-14T02:22:43;7.65;;;3.15;;
34144;SDS011;69555;53.014;8.886;2023-06-14T02:25:10;4.95;;;3.08;;
34144;SDS011;69555;53.014;8.886;2023-06-14T02:27:37;11.23;;;3.50;;
34144;SDS011;69555;53.014;8.886;2023-06-14T02:30:03;13.27;;;3.97;;
34144;SDS011;69555;53.014;8.886;2023-06-14T02:32:31;7.38;;;3.63;;
34144;SDS011;69555;53.014;8.886;2023-06-14T02:35:00;4.20;;;3.07;;
34144;SDS011;69555;53.014;8.886;2023-06-14T02:37:27;5.80;;;3.22;;
34144;SDS011;69555;53.014;8.886;2023-06-14T02:39:53;5.50;;;3.25;;
34144;SDS011;69555;53.014;8.886;2023-06-14T02:42:21;6.25;;;3.60;;
34144;SDS011;69555;53.014;8.886;2023-06-14T02:44:47;5.32;;;3.22;;
34144;SDS011;69555;53.014;8.886;2023-06-14T02:47:20;6.23;;;3.40;;
34144;SDS011;69555;53.014;8.886;2023-06-14T02:49:46;8.70;;;3.63;;
34144;SDS011;69555;53.014;8.886;2023-06-14T02:52:13;5.70;;;3.17;;
34144;SDS011;69555;53.014;8.886;2023-06-14T02:54:40;10.30;;;3.85;;
34144;SDS011;69555;53.014;8.886;2023-06-14T02:57:06;6.32;;;3.70;;
34144;SDS011;69555;53.014;8.886;2023-06-14T02:59:34;4.65;;;3.35;;
34144;SDS011;69555;53.014;8.886;2023-06-14T03:02:01;9.40;;;3.78;;
34144;SDS011;69555;53.014;8.886;2023-06-14T03:04:29;10.82;;;3.28;;
34144;SDS011;69555;53.014;8.886;2023-06-14T03:07:01;7.93;;;3.33;;
34144;SDS011;69555;53.014;8.886;2023-06-14T03:09:29;4.88;;;3.78;;
34144;SDS011;69555;53.014;8.886;2023-06-14T03:11:56;8.27;;;3.50;;
34144;SDS011;69555;53.014;8.886;2023-06-14T03:14:22;6.53;;;3.50;;
34144;SDS011;69555;53.014;8.886;2023-06-14T03:16:49;5.72;;;3.15;;
34144;SDS011;69555;53.014;8.886;2023-06-14T03:19:16;6.68;;;3.17;;
34144;SDS011;69555;53.014;8.886;2023-06-14T03:21:43;6.32;;;3.40;;
34144;SDS011;69555;53.014;8.886;2023-06-14T03:24:11;9.05;;;3.35;;
34144;SDS011;69555;53.014;8.886;2023-06-14T03:26:37;6.30;;;4.43;;
34144;SDS011;69555;53.014;8.886;2023-06-14T03:29:04;8.48;;;4.18;;
34144;SDS011;69555;53.014;8.886;2023-06-14T03:31:31;11.20;;;3.60;;
34144;SDS011;69555;53.014;8.886;2023-06-14T03:33:58;6.18;;;3.33;;
34144;SDS011;69555;53.014;8.886;2023-06-14T03:36:25;9.18;;;3.72;;
34144;SDS011;69555;53.014;8.886;2023-06-14T03:38:56;7.07;;;3.20;;
34144;SDS011;69555;53.014;8.886;2023-06-14T03:41:23;6.18;;;3.60;;
34144;SDS011;69555;53.014;8.886;2023-06-14T03:43:49;8.13;;;3.55;;
34144;SDS011;69555;53.014;8.886;2023-06-14T03:46:16;8.52;;;3.90;;
34144;SDS011;69555;53.014;8.886;2023-06-14T03:48:41;4.53;;;3.10;;
34144;SDS011;69555;53.014;8.886;2023-06-14T03:51:08;9.35;;;3.47;;
34144;SDS011;69555;53.014;8.886;2023-06-14T03:53:36;5.32;;;3.80;;
34144;SDS011;69555;53.014;8.886;2023-06-14T03:56:03;7.07;;;3.65;;
34144;SDS011;69555;53.014;8.886;2023-06-14T03:58:29;8.23;;;3.40;;
34144;SDS011;69555;53.014;8.886;2023-06-14T04:00:56;8.57;;;5.00;;
34144;SDS011;69555;53.014;8.886;2023-06-14T04:03:22;7.70;;;4.03;;
34144;SDS011;69555;53.014;8.886;2023-06-14T04:05:51;8.95;;;3.47;;
34144;SDS011;69555;53.014;8.886;2023-06-14T04:08:23;6.95;;;3.92;;
34144;SDS011;69555;53.014;8.886;2023-06-14T04:10:50;5.65;;;3.40;;
34144;SDS011;69555;53.014;8.886;2023-06-14T04:13:17;6.68;;;3.80;;
34144;SDS011;69555;53.014;8.886;2023-06-14T04:15:43;10.68;;;4.13;;
34144;SDS011;69555;53.014;8.886;2023-06-14T04:18:12;8.05;;;3.42;;
34144;SDS011;69555;53.014;8.886;2023-06-14T04:20:38;5.65;;;3.47;;
34144;SDS011;69555;53.014;8.886;2023-06-14T04:23:16;7.60;;;4.13;;
34144;SDS011;69555;53.014;8.886;2023-06-14T04:25:47;13.57;;;5.63;;
34144;SDS011;69555;53.014;8.886;2023-06-14T04:28:15;13.13;;;4.80;;
34144;SDS011;69555;53.014;8.886;2023-06-14T04:30:43;5.80;;;3.70;;
34144;SDS011;69555;53.014;8.886;2023-06-14T04:33:11;10.32;;;3.83;;
34144;SDS011;69555;53.014;8.886;2023-06-14T04:35:37;5.93;;;3.92;;
34144;SDS011;69555;53.014;8.886;2023-06-14T04:38:05;7.88;;;3.53;;
34144;SDS011;69555;53.014;8.886;2023-06-14T04:40:34;5.00;;;3.50;;
34144;SDS011;69555;53.014;8.886;2023-06-14T04:43:02;5.85;;;3.53;;
34144;SDS011;69555;53.014;8.886;2023-06-14T04:45:32;12.55;;;3.97;;
34144;SDS011;69555;53.014;8.886;2023-06-14T04:47:59;7.50;;;3.45;;
34144;SDS011;69555;53.014;8.886;2023-06-14T04:50:26;7.30;;;3.40;;
34144;SDS011;69555;53.014;8.886;2023-06-14T04:52:53;9.25;;;3.42;;
34144;SDS011;69555;53.014;8.886;2023-06-14T04:55:20;7.43;;;4.05;;
34144;SDS011;69555;53.014;8.886;2023-06-14T04:57:46;8.82;;;3.08;;
34144;SDS011;69555;53.014;8.886;2023-06-14T05:00:12;4.53;;;3.10;;
34144;SDS011;69555;53.014;8.886;2023-06-14T05:02:38;8.88;;;3.35;;
34144;SDS011;69555;53.014;8.886;2023-06-14T05:05:06;8.32;;;3.08;;
34144;SDS011;69555;53.014;8.886;2023-06-14T05:07:33;6.93;;;3.50;;
34144;SDS011;69555;53.014;8.886;2023-06-14T05:10:00;10.43;;;3.55;;
34144;SDS011;69555;53.014;8.886;2023-06-14T05:12:27;9.93;;;3.22;;
34144;SDS011;69555;53.014;8.886;2023-06-14T05:14:55;8.93;;;4.00;;
34144;SDS011;69555;53.014;8.886;2023-06-14T05:17:21;6.63;;;3.47;;
34144;SDS011;69555;53.014;8.886;2023-06-14T05:19:47;3.95;;;3.08;;
34144;SDS011;69555;53.014;8.886;2023-06-14T05:22:12;12.13;;;3.97;;
34144;SDS011;69555;53.014;8.886;2023-06-14T05:24:39;8.75;;;4.00;;
34144;SDS011;69555;53.014;8.886;2023-06-14T05:27:06;11.32;;;3.42;;
34144;SDS011;69555;53.014;8.886;2023-06-14T05:29:33;9.32;;;4.93;;
34144;SDS011;69555;53.014;8.886;2023-06-14T05:31:59;8.40;;;3.88;;
34144;SDS011;69555;53.014;8.886;2023-06-14T05:34:26;12.65;;;3.65;;
34144;SDS011;69555;53.014;8.886;2023-06-14T05:36:52;8.38;;;2.95;;
34144;SDS011;69555;53.014;8.886;2023-06-14T05:39:19;11.05;;;4.07;;
34144;SDS011;69555;53.014;8.886;2023-06-14T05:41:46;7.18;;;3.17;;
34144;SDS011;69555;53.014;8.886;2023-06-14T05:44:12;7.95;;;3.45;;
34144;SDS011;69555;53.014;8.886;2023-06-14T05:46:39;5.82;;;3.05;;
34144;SDS011;69555;53.014;8.886;2023-06-14T05:49:06;10.23;;;3.63;;
34144;SDS011;69555;53.014;8.886;2023-06-14T05:51:33;6.35;;;3.05;;
34144;SDS011;69555;53.014;8.886;2023-06-14T05:53:59;6.93;;;3.00;;
34144;SDS011;69555;53.014;8.886;2023-06-14T05:56:26;9.70;;;2.97;;
34144;SDS011;69555;53.014;8.886;2023-06-14T05:58:53;6.88;;;3.20;;
34144;SDS011;69555;53.014;8.886;2023-06-14T06:01:20;6.28;;;3.17;;
34144;SDS011;69555;53.014;8.886;2023-06-14T06:03:46;12.95;;;3.13;;
34144;SDS011;69555;53.014;8.886;2023-06-14T06:06:13;5.72;;;3.08;;
34144;SDS011;69555;53.014;8.886;2023-06-14T06:08:40;6.63;;;3.10;;
34144;SDS011;69555;53.014;8.886;2023-06-14T06:11:08;7.18;;;2.78;;
34144;SDS011;69555;53.014;8.886;2023-06-14T06:13:34;7.50;;;3.55;;
34144;SDS011;69555;53.014;8.886;2023-06-14T06:16:02;7.43;;;2.60;;
34144;SDS011;69555;53.014;8.886;2023-06-14T06:18:29;5.38;;;2.85;;
34144;SDS011;69555;53.014;8.886;2023-06-14T06:20:56;6.88;;;3.70;;
34144;SDS011;69555;53.014;8.886;2023-06-14T06:23:22;3.90;;;2.60;;
34144;SDS011;69555;53.014;8.886;2023-06-14T06:25:48;10.27;;;3.53;;
34144;SDS011;69555;53.014;8.886;2023-06-14T06:28:15;8.55;;;3.20;;
34144;SDS011;69555;53.014;8.886;2023-06-14T06:30:42;7.65;;;3.10;;
34144;SDS011;69555;53.014;8.886;2023-06-14T06:33:09;5.93;;;2.90;;
34144;SDS011;69555;53.014;8.886;2023-06-14T06:35:36;7.57;;;2.72;;
34144;SDS011;69555;53.014;8.886;2023-06-14T06:38:03;18.83;;;3.03;;
34144;SDS011;69555;53.014;8.886;2023-06-14T06:40:29;4.88;;;2.90;;
34144;SDS011;69555;53.014;8.886;2023-06-14T06:42:56;4.57;;;2.88;;
34144;SDS011;69555;53.014;8.886;2023-06-14T06:45:22;3.65;;;2.10;;
34144;SDS011;69555;53.014;8.886;2023-06-14T06:47:49;9.43;;;2.65;;
34144;SDS011;69555;53.014;8.886;2023-06-14T06:50:17;6.00;;;2.97;;
34144;SDS011;69555;53.014;8.886;2023-06-14T06:52:44;6.32;;;2.35;;
34144;SDS011;69555;53.014;8.886;2023-06-14T06:55:11;5.63;;;2.13;;
34144;SDS011;69555;53.014;8.886;2023-06-14T06:57:39;2.17;;;1.98;;
34144;SDS011;69555;53.014;8.886;2023-06-14T07:00:06;2.90;;;1.90;;
34144;SDS011;69555;53.014;8.886;2023-06-14T07:02:36;11.23;;;2.50;;
34144;SDS011;69555;53.014;8.886;2023-06-14T07:05:03;6.38;;;2.50;;
34144;SDS011;69555;53.014;8.886;2023-06-14T07:07:30;9.93;;;2.97;;
34144;SDS011;69555;53.014;8.886;2023-06-14T07:09:57;7.70;;;2.40;;
34144;SDS011;69555;53.014;8.886;2023-06-14T07:12:24;10.13;;;2.22;;
34144;SDS011;69555;53.014;8.886;2023-06-14T07:14:52;2.67;;;1.70;;
34144;SDS011;69555;53.014;8.886;2023-06-14T07:17:19;7.03;;;2.35;;
34144;SDS011;69555;53.014;8.886;2023-06-14T07:19:45;4.65;;;2.85;;
34144;SDS011;69555;53.014;8.886;2023-06-14T07:22:12;4.35;;;2.03;;
34144;SDS011;69555;53.014;8.886;2023-06-14T07:24:37;3.60;;;1.92;;
34144;SDS011;69555;53.014;8.886;2023-06-14T07:27:06;2.50;;;2.10;;
34144;SDS011;69555;53.014;8.886;2023-06-14T07:29:33;5.05;;;2.55;;
34144;SDS011;69555;53.014;8.886;2023-06-14T07:32:00;2.50;;;2.15;;
34144;SDS011;69555;53.014;8.886;2023-06-14T07:34:27;7.72;;;2.60;;
34144;SDS011;69555;53.014;8.886;2023-06-14T07:36:53;2.22;;;1.67;;
34144;SDS011;69555;53.014;8.886;2023-06-14T07:39:20;6.82;;;2.50;;
34144;SDS011;69555;53.014;8.886;2023-06-14T07:41:47;3.72;;;2.35;;
34144;SDS011;69555;53.014;8.886;2023-06-14T07:44:12;6.97;;;2.03;;
34144;SDS011;69555;53.014;8.886;2023-06-14T07:46:38;4.35;;;2.08;;
34144;SDS011;69555;53.014;8.886;2023-06-14T07:49:03;7.00;;;2.10;;
34144;SDS011;69555;53.014;8.886;2023-06-14T07:51:30;2.85;;;2.03;;
34144;SDS011;69555;53.014;8.886;2023-06-14T07:53:55;3.53;;;2.10;;
34144;SDS011;69555;53.014;8.886;2023-06-14T07:56:21;3.38;;;2.20;;
34144;SDS011;69555;53.014;8.886;2023-06-14T07:58:48;4.60;;;2.17;;
34144;SDS011;69555;53.014;8.886;2023-06-14T08:01:13;2.45;;;2.00;;
34144;SDS011;69555;53.014;8.886;2023-06-14T08:03:39;2.40;;;1.77;;
34144;SDS011;69555;53.014;8.886;2023-06-14T08:06:04;4.25;;;1.90;;
34144;SDS011;69555;53.014;8.886;2023-06-14T08:08:30;2.55;;;1.80;;
34144;SDS011;69555;53.014;8.886;2023-06-14T08:10:57;4.20;;;1.83;;
34144;SDS011;69555;53.014;8.886;2023-06-14T08:13:24;6.40;;;2.28;;
34144;SDS011;69555;53.014;8.886;2023-06-14T08:15:51;2.92;;;1.73;;
34144;SDS011;69555;53.014;8.886;2023-06-14T08:18:16;3.92;;;2.03;;
34144;SDS011;69555;53.014;8.886;2023-06-14T08:20:42;3.70;;;1.60;;
34144;SDS011;69555;53.014;8.886;2023-06-14T08:23:08;6.43;;;1.73;;
34144;SDS011;69555;53.014;8.886;2023-06-14T08:25:34;3.40;;;2.25;;
34144;SDS011;69555;53.014;8.886;2023-06-14T08:27:59;4.38;;;2.00;;
34144;SDS011;69555;53.014;8.886;2023-06-14T08:30:25;2.55;;;1.85;;
34144;SDS011;69555;53.014;8.886;2023-06-14T08:32:51;8.50;;;2.00;;
34144;SDS011;69555;53.014;8.886;2023-06-14T08:35:17;4.45;;;1.75;;
34144;SDS011;69555;53.014;8.886;2023-06-14T08:37:43;3.08;;;1.83;;
34144;SDS011;69555;53.014;8.886;2023-06-14T08:40:18;5.93;;;2.05;;
34144;SDS011;69555;53.014;8.886;2023-06-14T08:42:51;4.07;;;2.00;;
34144;SDS011;69555;53.014;8.886;2023-06-14T08:45:18;4.05;;;2.60;;
34144;SDS011;69555;53.014;8.886;2023-06-14T08:47:48;3.78;;;2.10;;
34144;SDS011;69555;53.014;8.886;2023-06-14T08:50:20;2.35;;;1.70;;
34144;SDS011;69555;53.014;8.886;2023-06-14T08:52:48;4.22;;;1.83;;
34144;SDS011;69555;53.014;8.886;2023-06-14T08:55:18;5.85;;;1.90;;
34144;SDS011;69555;53.014;8.886;2023-06-14T08:57:45;3.58;;;1.77;;
34144;SDS011;69555;53.014;8.886;2023-06-14T09:00:11;5.32;;;1.60;;
34144;SDS011;69555;53.014;8.886;2023-06-14T09:02:38;5.97;;;2.17;;
34144;SDS011;69555;53.014;8.886;2023-06-14T09:05:08;3.83;;;2.30;;
34144;SDS011;69555;53.014;8.886;2023-06-14T09:07:41;5.07;;;2.33;;
34144;SDS011;69555;53.014;8.886;2023-06-14T09:10:11;4.50;;;1.98;;
34144;SDS011;69555;53.014;8.886;2023-06-14T09:12:37;33.80;;;4.43;;
34144;SDS011;69555;53.014;8.886;2023-06-14T09:15:04;8.68;;;2.33;;
34144;SDS011;69555;53.014;8.886;2023-06-14T09:17:40;9.88;;;2.67;;
34144;SDS011;69555;53.014;8.886;2023-06-14T09:20:07;4.72;;;2.15;;
34144;SDS011;69555;53.014;8.886;2023-06-14T09:22:43;5.38;;;2.15;;
34144;SDS011;69555;53.014;8.886;2023-06-14T09:25:09;6.53;;;2.25;;
34144;SDS011;69555;53.014;8.886;2023-06-14T09:27:35;4.72;;;2.15;;
34144;SDS011;69555;53.014;8.886;2023-06-14T09:30:03;13.25;;;2.92;;
34144;SDS011;69555;53.014;8.886;2023-06-14T09:32:29;17.05;;;2.80;;
34144;SDS011;69555;53.014;8.886;2023-06-14T09:34:56;6.15;;;2.35;;
34144;SDS011;69555;53.014;8.886;2023-06-14T09:37:30;3.60;;;1.55;;
34144;SDS011;69555;53.014;8.886;2023-06-14T09:39:57;5.03;;;1.60;;
34144;SDS011;69555;53.014;8.886;2023-06-14T09:42:24;4.60;;;1.77;;
34144;SDS011;69555;53.014;8.886;2023-06-14T09:44:55;5.95;;;2.10;;
34144;SDS011;69555;53.014;8.886;2023-06-14T09:47:23;3.65;;;1.95;;
34144;SDS011;69555;53.014;8.886;2023-06-14T09:49:51;6.40;;;2.33;;
34144;SDS011;69555;53.014;8.886;2023-06-14T09:52:19;3.25;;;1.92;;
34144;SDS011;69555;53.014;8.886;2023-06-14T09:54:48;7.85;;;2.42;;
34144;SDS011;69555;53.014;8.886;2023-06-14T09:57:16;3.85;;;2.38;;
34144;SDS011;69555;53.014;8.886;2023-06-14T09:59:48;5.15;;;2.22;;
34144;SDS011;69555;53.014;8.886;2023-06-14T10:02:31;4.40;;;2.67;;
34144;SDS011;69555;53.014;8.886;2023-06-14T10:05:09;5.93;;;2.40;;
34144;SDS011;69555;53.014;8.886;2023-06-14T10:07:55;2.78;;;2.22;;
34144;SDS011;69555;53.014;8.886;2023-06-14T10:10:24;6.00;;;2.70;;
34144;SDS011;69555;53.014;8.886;2023-06-14T10:12:50;3.88;;;2.13;;
34144;SDS011;69555;53.014;8.886;2023-06-14T10:15:23;5.72;;;2.40;;
34144;SDS011;69555;53.014;8.886;2023-06-14T10:18:08;5.78;;;2.60;;
34144;SDS011;69555;53.014;8.886;2023-06-14T10:20:50;3.90;;;2.28;;
34144;SDS011;69555;53.014;8.886;2023-06-14T10:23:21;5.70;;;2.60;;
34144;SDS011;69555;53.014;8.886;2023-06-14T10:25:49;5.97;;;2.27;;
34144;SDS011;69555;53.014;8.886;2023-06-14T10:28:16;5.80;;;3.00;;
34144;SDS011;69555;53.014;8.886;2023-06-14T10:33:36;6.00;;;2.65;;
34144;SDS011;69555;53.014;8.886;2023-06-14T10:38:32;4.40;;;2.45;;
34144;SDS011;69555;53.014;8.886;2023-06-14T10:40:59;7.13;;;2.80;;
34144;SDS011;69555;53.014;8.886;2023-06-14T10:43:25;3.95;;;2.28;;
34144;SDS011;69555;53.014;8.886;2023-06-14T10:48:47;7.53;;;2.40;;
34144;SDS011;69555;53.014;8.886;2023-06-14T10:51:17;5.78;;;2.50;;
34144;SDS011;69555;53.014;8.886;2023-06-14T10:53:48;5.68;;;2.63;;
34144;SDS011;69555;53.014;8.886;2023-06-14T11:04:21;5.05;;;2.72;;
34144;SDS011;69555;53.014;8.886;2023-06-14T11:07:05;6.03;;;2.72;;
34144;SDS011;69555;53.014;8.886;2023-06-14T11:12:31;5.80;;;2.70;;
34144;SDS011;69555;53.014;8.886;2023-06-14T11:14:58;11.23;;;3.17;;
34144;SDS011;69555;53.014;8.886;2023-06-14T11:17:24;11.70;;;3.15;;
34144;SDS011;69555;53.014;8.886;2023-06-14T11:19:51;5.50;;;2.75;;
34144;SDS011;69555;53.014;8.886;2023-06-14T11:22:44;7.15;;;2.92;;
34144;SDS011;69555;53.014;8.886;2023-06-14T11:25:13;5.57;;;2.47;;
34144;SDS011;69555;53.014;8.886;2023-06-14T11:27:39;7.22;;;2.47;;
34144;SDS011;69555;53.014;8.886;2023-06-14T11:30:06;8.85;;;2.85;;
34144;SDS011;69555;53.014;8.886;2023-06-14T11:32:32;11.55;;;3.03;;
34144;SDS011;69555;53.014;8.886;2023-06-14T11:34:58;8.77;;;2.75;;
34144;SDS011;69555;53.014;8.886;2023-06-14T11:37:29;7.70;;;3.08;;
34144;SDS011;69555;53.014;8.886;2023-06-14T11:39:58;4.95;;;2.53;;
34144;SDS011;69555;53.014;8.886;2023-06-14T11:42:30;5.70;;;3.08;;
34144;SDS011;69555;53.014;8.886;2023-06-14T11:44:55;3.33;;;2.58;;
34144;SDS011;69555;53.014;8.886;2023-06-14T11:47:21;4.07;;;2.85;;
34144;SDS011;69555;53.014;8.886;2023-06-14T11:49:48;4.65;;;2.67;;
34144;SDS011;69555;53.014;8.886;2023-06-14T11:52:13;6.35;;;3.75;;
34144;SDS011;69555;53.014;8.886;2023-06-14T11:54:39;4.80;;;3.08;;
34144;SDS011;69555;53.014;8.886;2023-06-14T11:57:06;5.88;;;2.63;;
34144;SDS011;69555;53.014;8.886;2023-06-14T11:59:37;10.27;;;2.92;;
34144;SDS011;69555;53.014;8.886;2023-06-14T12:02:03;8.77;;;2.65;;
34144;SDS011;69555;53.014;8.886;2023-06-14T12:04:29;7.22;;;3.38;;
34144;SDS011;69555;53.014;8.886;2023-06-14T12:06:55;11.43;;;2.53;;
34144;SDS011;69555;53.014;8.886;2023-06-14T12:09:22;6.65;;;3.38;;
34144;SDS011;69555;53.014;8.886;2023-06-14T12:11:51;6.82;;;2.88;;
34144;SDS011;69555;53.014;8.886;2023-06-14T12:14:31;2.95;;;2.67;;
34144;SDS011;69555;53.014;8.886;2023-06-14T12:17:06;6.80;;;2.65;;
34144;SDS011;69555;53.014;8.886;2023-06-14T12:19:32;5.43;;;3.35;;
34144;SDS011;69555;53.014;8.886;2023-06-14T12:22:01;4.95;;;2.88;;
34144;SDS011;69555;53.014;8.886;2023-06-14T12:24:30;11.43;;;3.05;;
34144;SDS011;69555;53.014;8.886;2023-06-14T12:26:59;7.03;;;3.13;;
34144;SDS011;69555;53.014;8.886;2023-06-14T12:29:27;5.50;;;3.22;;
34144;SDS011;69555;53.014;8.886;2023-06-14T12:31:53;6.80;;;3.20;;
34144;SDS011;69555;53.014;8.886;2023-06-14T12:34:21;6.32;;;2.95;;
34144;SDS011;69555;53.014;8.886;2023-06-14T12:36:47;5.43;;;3.10;;
34144;SDS011;69555;53.014;8.886;2023-06-14T12:39:12;9.25;;;2.58;;
34144;SDS011;69555;53.014;8.886;2023-06-14T12:41:38;6.55;;;2.72;;
34144;SDS011;69555;53.014;8.886;2023-06-14T12:44:06;9.23;;;2.92;;
34144;SDS011;69555;53.014;8.886;2023-06-14T12:46:31;7.88;;;3.03;;
34144;SDS011;69555;53.014;8.886;2023-06-14T12:48:57;7.47;;;2.75;;
34144;SDS011;69555;53.014;8.886;2023-06-14T12:51:22;4.88;;;2.72;;
34144;SDS011;69555;53.014;8.886;2023-06-14T12:53:48;7.95;;;3.00;;
34144;SDS011;69555;53.014;8.886;2023-06-14T12:56:14;8.40;;;2.33;;
34144;SDS011;69555;53.014;8.886;2023-06-14T12:58:40;6.82;;;2.50;;
34144;SDS011;69555;53.014;8.886;2023-06-14T13:01:06;7.78;;;3.33;;
34144;SDS011;69555;53.014;8.886;2023-06-14T13:03:32;7.10;;;3.40;;
34144;SDS011;69555;53.014;8.886;2023-06-14T13:05:59;6.80;;;2.65;;
34144;SDS011;69555;53.014;8.886;2023-06-14T13:08:26;5.68;;;3.05;;
34144;SDS011;69555;53.014;8.886;2023-06-14T13:10:52;3.25;;;2.72;;
34144;SDS011;69555;53.014;8.886;2023-06-14T13:13:18;8.18;;;3.30;;
34144;SDS011;69555;53.014;8.886;2023-06-14T13:15:43;7.97;;;2.65;;
34144;SDS011;69555;53.014;8.886;2023-06-14T13:18:10;9.30;;;2.88;;
34144;SDS011;69555;53.014;8.886;2023-06-14T13:20:38;5.95;;;2.75;;
34144;SDS011;69555;53.014;8.886;2023-06-14T13:23:04;9.73;;;3.03;;
34144;SDS011;69555;53.014;8.886;2023-06-14T13:25:31;4.43;;;2.95;;
34144;SDS011;69555;53.014;8.886;2023-06-14T13:27:56;11.13;;;3.22;;
34144;SDS011;69555;53.014;8.886;2023-06-14T13:30:22;7.57;;;3.10;;
34144;SDS011;69555;53.014;8.886;2023-06-14T13:32:47;8.88;;;3.05;;
34144;SDS011;69555;53.014;8.886;2023-06-14T13:35:13;8.25;;;2.42;;
34144;SDS011;69555;53.014;8.886;2023-06-14T13:37:38;6.40;;;2.88;;
34144;SDS011;69555;53.014;8.886;2023-06-14T13:40:04;8.43;;;2.60;;
34144;SDS011;69555;53.014;8.886;2023-06-14T13:42:30;7.70;;;3.05;;
34144;SDS011;69555;53.014;8.886;2023-06-14T13:44:57;8.18;;;2.63;;
34144;SDS011;69555;53.014;8.886;2023-06-14T13:47:23;9.10;;;3.30;;
34144;SDS011;69555;53.014;8.886;2023-06-14T13:49:49;6.05;;;2.72;;
34144;SDS011;69555;53.014;8.886;2023-06-14T13:52:14;6.75;;;2.95;;
34144;SDS011;69555;53.014;8.886;2023-06-14T13:54:39;3.28;;;2.88;;
34144;SDS011;69555;53.014;8.886;2023-06-14T13:57:05;7.95;;;3.13;;
34144;SDS011;69555;53.014;8.886;2023-06-14T13:59:31;5.40;;;2.90;;
34144;SDS011;69555;53.014;8.886;2023-06-14T14:01:57;7.57;;;3.35;;
34144;SDS011;69555;53.014;8.886;2023-06-14T14:04:22;4.40;;;3.35;;
34144;SDS011;69555;53.014;8.886;2023-06-14T14:06:47;15.18;;;2.67;;
34144;SDS011;69555;53.014;8.886;2023-06-14T14:09:13;6.65;;;2.60;;
34144;SDS011;69555;53.014;8.886;2023-06-14T14:11:39;4.35;;;2.38;;
34144;SDS011;69555;53.014;8.886;2023-06-14T14:14:06;4.75;;;2.58;;
34144;SDS011;69555;53.014;8.886;2023-06-14T14:16:32;10.25;;;3.70;;
34144;SDS011;69555;53.014;8.886;2023-06-14T14:18:57;5.85;;;3.10;;
34144;SDS011;69555;53.014;8.886;2023-06-14T14:21:23;3.85;;;3.30;;
34144;SDS011;69555;53.014;8.886;2023-06-14T14:23:48;5.47;;;2.80;;
34144;SDS011;69555;53.014;8.886;2023-06-14T14:26:14;9.30;;;3.05;;
34144;SDS011;69555;53.014;8.886;2023-06-14T14:28:41;5.28;;;3.25;;
34144;SDS011;69555;53.014;8.886;2023-06-14T14:31:06;4.65;;;2.70;;
34144;SDS011;69555;53.014;8.886;2023-06-14T14:33:32;5.57;;;2.63;;
34144;SDS011;69555;53.014;8.886;2023-06-14T14:35:57;10.82;;;3.25;;
34144;SDS011;69555;53.014;8.886;2023-06-14T14:38:24;7.50;;;3.00;;
34144;SDS011;69555;53.014;8.886;2023-06-14T14:40:49;9.27;;;3.05;;
34144;SDS011;69555;53.014;8.886;2023-06-14T14:43:15;7.30;;;3.10;;
34144;SDS011;69555;53.014;8.886;2023-06-14T14:45:40;4.63;;;2.60;;
34144;SDS011;69555;53.014;8.886;2023-06-14T14:48:06;4.55;;;2.90;;
34144;SDS011;69555;53.014;8.886;2023-06-14T14:50:32;6.53;;;3.08;;
34144;SDS011;69555;53.014;8.886;2023-06-14T14:52:57;5.22;;;2.80;;
34144;SDS011;69555;53.014;8.886;2023-06-14T14:55:23;7.60;;;3.17;;
34144;SDS011;69555;53.014;8.886;2023-06-14T14:57:49;7.35;;;3.10;;
34144;SDS011;69555;53.014;8.886;2023-06-14T15:00:14;8.77;;;3.42;;
34144;SDS011;69555;53.014;8.886;2023-06-14T15:02:40;5.53;;;3.00;;
34144;SDS011;69555;53.014;8.886;2023-06-14T15:05:05;13.88;;;3.33;;
34144;SDS011;69555;53.014;8.886;2023-06-14T15:07:31;16.35;;;3.88;;
34144;SDS011;69555;53.014;8.886;2023-06-14T15:09:58;6.25;;;3.33;;
34144;SDS011;69555;53.014;8.886;2023-06-14T15:12:24;7.90;;;3.40;;
34144;SDS011;69555;53.014;8.886;2023-06-14T15:14:52;7.05;;;2.88;;